sensor_id;sensor_type;location;lat;lon;timestamp;pressure;altitude;pressure_sealevel;temperature;humidity
58658;BME280;44428;45.630;13.786;2022-07-29T00:01:55;101197.84;;;24.20;55.40
58658;BME280;44428;45.630;13.786;2022-07-29T00:04:21;101197.84;;;24.20;55.17
58658;BME280;44428;45.630;13.786;2022-07-29T00:06:46;101210.34;;;24.21;55.21
58658;BME280;44428;45.630;13.786;2022-07-29T00:09:13;101214.41;;;24.17;55.36
58658;BME280;44428;45.630;13.786;2022-07-29T00:11:38;101203.81;;;24.31;54.37
58658;BME280;44428;45.630;13.786;2022-07-29T00:14:04;101206.81;;;24.36;53.90
58658;BME280;44428;45.630;13.786;2022-07-29T00:16:30;101203.25;;;24.35;54.14
58658;BME280;44428;45.630;13.786;2022-07-29T00:18:56;101206.53;;;24.31;55.01
58658;BME280;44428;45.630;13.786;2022-07-29T00:21:21;101195.72;;;24.31;55.00
58658;BME280;44428;45.630;13.786;2022-07-29T00:23:47;101195.06;;;24.29;54.51
58658;BME280;44428;45.630;13.786;2022-07-29T00:26:13;101210.44;;;24.28;54.19
58658;BME280;44428;45.630;13.786;2022-07-29T00:28:38;101198.41;;;24.31;53.80
58658;BME280;44428;45.630;13.786;2022-07-29T00:31:04;101202.50;;;24.27;54.23
58658;BME280;44428;45.630;13.786;2022-07-29T00:33:30;101203.00;;;24.30;53.93
58658;BME280;44428;45.630;13.786;2022-07-29T00:35:56;101193.03;;;24.31;53.60
58658;BME280;44428;45.630;13.786;2022-07-29T00:38:22;101174.66;;;24.26;54.22
58658;BME280;44428;45.630;13.786;2022-07-29T00:40:47;101181.75;;;24.27;53.90
58658;BME280;44428;45.630;13.786;2022-07-29T00:43:14;101179.59;;;24.22;54.24
58658;BME280;44428;45.630;13.786;2022-07-29T00:45:41;101179.59;;;24.22;54.06
58658;BME280;44428;45.630;13.786;2022-07-29T00:48:07;101182.59;;;24.28;53.77
58658;BME280;44428;45.630;13.786;2022-07-29T00:50:34;101184.47;;;24.27;53.62
58658;BME280;44428;45.630;13.786;2022-07-29T00:53:01;101176.97;;;24.14;54.23
58658;BME280;44428;45.630;13.786;2022-07-29T00:55:28;101183.13;;;24.08;55.06
58658;BME280;44428;45.630;13.786;2022-07-29T00:57:54;101182.19;;;24.01;55.08
58658;BME280;44428;45.630;13.786;2022-07-29T01:00:23;101170.72;;;23.99;54.82
58658;BME280;44428;45.630;13.786;2022-07-29T01:02:49;101174.66;;;23.96;55.03
58658;BME280;44428;45.630;13.786;2022-07-29T01:05:17;101170.00;;;24.05;54.21
58658;BME280;44428;45.630;13.786;2022-07-29T01:07:44;101161.91;;;24.05;54.34
58658;BME280;44428;45.630;13.786;2022-07-29T01:10:12;101172.53;;;24.07;54.29
58658;BME280;44428;45.630;13.786;2022-07-29T01:12:39;101164.69;;;23.97;54.63
58658;BME280;44428;45.630;13.786;2022-07-29T01:15:06;101160.88;;;23.91;54.94
58658;BME280;44428;45.630;13.786;2022-07-29T01:34:13;101162.25;;;23.72;54.71
58658;BME280;44428;45.630;13.786;2022-07-29T01:36:50;101166.63;;;23.73;54.68
58658;BME280;44428;45.630;13.786;2022-07-29T01:39:31;101164.94;;;23.72;54.88
58658;BME280;44428;45.630;13.786;2022-07-29T01:45:00;101162.88;;;23.74;54.34
58658;BME280;44428;45.630;13.786;2022-07-29T01:47:34;101163.91;;;23.73;54.41
58658;BME280;44428;45.630;13.786;2022-07-29T01:50:07;101170.25;;;23.81;53.50
58658;BME280;44428;45.630;13.786;2022-07-29T01:52:38;101164.84;;;23.81;53.63
58658;BME280;44428;45.630;13.786;2022-07-29T01:55:13;101164.59;;;23.75;53.91
58658;BME280;44428;45.630;13.786;2022-07-29T01:57:42;101156.47;;;23.75;54.30
58658;BME280;44428;45.630;13.786;2022-07-29T02:00:08;101152.47;;;23.71;54.07
58658;BME280;44428;45.630;13.786;2022-07-29T02:02:39;101161.50;;;23.79;53.57
58658;BME280;44428;45.630;13.786;2022-07-29T02:05:08;101168.56;;;23.80;53.57
58658;BME280;44428;45.630;13.786;2022-07-29T02:07:36;101166.91;;;23.79;53.21
58658;BME280;44428;45.630;13.786;2022-07-29T02:10:04;101164.28;;;23.70;53.47
58658;BME280;44428;45.630;13.786;2022-07-29T02:12:32;101172.69;;;23.75;53.08
58658;BME280;44428;45.630;13.786;2022-07-29T02:15:02;101165.81;;;23.88;53.07
58658;BME280;44428;45.630;13.786;2022-07-29T02:17:45;101166.75;;;23.95;52.54
58658;BME280;44428;45.630;13.786;2022-07-29T02:20:15;101170.84;;;23.91;52.89
58658;BME280;44428;45.630;13.786;2022-07-29T02:22:43;101166.81;;;23.87;53.24
58658;BME280;44428;45.630;13.786;2022-07-29T02:25:11;101165.81;;;23.88;53.13
58658;BME280;44428;45.630;13.786;2022-07-29T02:27:38;101158.97;;;23.77;53.57
58658;BME280;44428;45.630;13.786;2022-07-29T02:30:06;101154.63;;;23.76;52.97
58658;BME280;44428;45.630;13.786;2022-07-29T02:32:35;101153.00;;;23.67;53.32
58658;BME280;44428;45.630;13.786;2022-07-29T02:35:03;101150.81;;;23.62;53.84
58658;BME280;44428;45.630;13.786;2022-07-29T02:37:30;101156.22;;;23.62;53.63
58658;BME280;44428;45.630;13.786;2022-07-29T02:39:58;101156.94;;;23.56;53.77
58658;BME280;44428;45.630;13.786;2022-07-29T02:42:26;101145.22;;;23.49;54.24
58658;BME280;44428;45.630;13.786;2022-07-29T02:44:52;101137.06;;;23.57;54.13
58658;BME280;44428;45.630;13.786;2022-07-29T02:47:30;101141.13;;;23.53;54.06
58658;BME280;44428;45.630;13.786;2022-07-29T02:50:11;101140.19;;;23.46;54.29
58658;BME280;44428;45.630;13.786;2022-07-29T02:55:19;101138.75;;;23.35;54.92
58658;BME280;44428;45.630;13.786;2022-07-29T03:00:31;101138.94;;;23.34;54.70
58658;BME280;44428;45.630;13.786;2022-07-29T03:03:01;101136.63;;;23.30;54.19
58658;BME280;44428;45.630;13.786;2022-07-29T03:05:29;101132.88;;;23.31;54.54
58658;BME280;44428;45.630;13.786;2022-07-29T03:08:11;101136.72;;;23.37;54.08
58658;BME280;44428;45.630;13.786;2022-07-29T03:10:42;101130.50;;;23.37;53.90
58658;BME280;44428;45.630;13.786;2022-07-29T03:13:09;101136.63;;;23.30;53.82
58658;BME280;44428;45.630;13.786;2022-07-29T03:15:36;101138.28;;;23.31;54.23
58658;BME280;44428;45.630;13.786;2022-07-29T03:18:02;101134.19;;;23.36;53.70
58658;BME280;44428;45.630;13.786;2022-07-29T03:20:29;101145.34;;;23.32;54.11
58658;BME280;44428;45.630;13.786;2022-07-29T03:22:54;101140.91;;;23.40;53.98
58658;BME280;44428;45.630;13.786;2022-07-29T03:25:20;101134.56;;;23.32;53.93
58658;BME280;44428;45.630;13.786;2022-07-29T03:27:46;101134.91;;;23.29;54.20
58658;BME280;44428;45.630;13.786;2022-07-29T03:30:14;101130.19;;;23.31;53.97
58658;BME280;44428;45.630;13.786;2022-07-29T03:32:41;101127.84;;;23.28;54.14
58658;BME280;44428;45.630;13.786;2022-07-29T03:35:07;101136.63;;;23.30;53.72
58658;BME280;44428;45.630;13.786;2022-07-29T03:37:33;101137.09;;;23.34;53.86
58658;BME280;44428;45.630;13.786;2022-07-29T03:40:05;101120.19;;;23.40;53.55
58658;BME280;44428;45.630;13.786;2022-07-29T03:42:33;101117.28;;;23.42;53.35
58658;BME280;44428;45.630;13.786;2022-07-29T03:45:07;101110.69;;;23.44;53.46
58658;BME280;44428;45.630;13.786;2022-07-29T03:47:38;101105.50;;;23.43;53.35
58658;BME280;44428;45.630;13.786;2022-07-29T03:50:08;101102.81;;;23.43;53.50
58658;BME280;44428;45.630;13.786;2022-07-29T03:52:36;101100.75;;;23.45;53.60
58658;BME280;44428;45.630;13.786;2022-07-29T03:55:02;101093.31;;;23.47;53.24
58658;BME280;44428;45.630;13.786;2022-07-29T03:57:30;101082.38;;;23.63;52.60
58658;BME280;44428;45.630;13.786;2022-07-29T03:59:57;101072.56;;;23.70;52.10
58658;BME280;44428;45.630;13.786;2022-07-29T04:02:24;101052.97;;;23.68;52.27
58658;BME280;44428;45.630;13.786;2022-07-29T04:04:51;101062.59;;;23.71;52.18
58658;BME280;44428;45.630;13.786;2022-07-29T04:07:17;101053.66;;;23.70;52.42
58658;BME280;44428;45.630;13.786;2022-07-29T04:09:42;101065.22;;;23.79;51.69
58658;BME280;44428;45.630;13.786;2022-07-29T04:12:08;101069.09;;;23.76;51.62
58658;BME280;44428;45.630;13.786;2022-07-29T04:14:35;101076.84;;;23.80;51.76
58658;BME280;44428;45.630;13.786;2022-07-29T04:17:02;101079.81;;;23.85;51.41
58658;BME280;44428;45.630;13.786;2022-07-29T04:19:28;101092.94;;;24.03;50.78
58658;BME280;44428;45.630;13.786;2022-07-29T04:21:54;101102.25;;;24.00;50.83
58658;BME280;44428;45.630;13.786;2022-07-29T04:24:20;101119.06;;;24.02;50.91
58658;BME280;44428;45.630;13.786;2022-07-29T04:26:46;101120.41;;;24.06;50.46
58658;BME280;44428;45.630;13.786;2022-07-29T04:29:12;101128.75;;;24.11;50.71
58658;BME280;44428;45.630;13.786;2022-07-29T04:31:42;101128.00;;;24.17;50.34
58658;BME280;44428;45.630;13.786;2022-07-29T04:34:08;101128.56;;;24.28;49.58
58658;BME280;44428;45.630;13.786;2022-07-29T04:36:34;101135.66;;;24.29;49.64
58658;BME280;44428;45.630;13.786;2022-07-29T04:39:00;101114.72;;;24.45;48.80
58658;BME280;44428;45.630;13.786;2022-07-29T04:41:29;101123.94;;;24.51;48.92
58658;BME280;44428;45.630;13.786;2022-07-29T04:43:56;101116.44;;;24.53;48.59
58658;BME280;44428;45.630;13.786;2022-07-29T04:46:22;101125.88;;;24.57;48.34
58658;BME280;44428;45.630;13.786;2022-07-29T04:48:48;101137.69;;;24.56;48.77
58658;BME280;44428;45.630;13.786;2022-07-29T04:51:15;101130.25;;;24.58;48.79
58658;BME280;44428;45.630;13.786;2022-07-29T04:53:41;101132.94;;;24.58;48.89
58658;BME280;44428;45.630;13.786;2022-07-29T04:56:07;101134.88;;;24.64;48.97
58658;BME280;44428;45.630;13.786;2022-07-29T04:58:35;101132.84;;;24.66;48.86
58658;BME280;44428;45.630;13.786;2022-07-29T05:01:02;101129.56;;;24.71;48.69
58658;BME280;44428;45.630;13.786;2022-07-29T05:03:28;101133.75;;;24.74;48.54
58658;BME280;44428;45.630;13.786;2022-07-29T05:05:53;101130.56;;;24.85;48.49
58658;BME280;44428;45.630;13.786;2022-07-29T05:08:19;101140.59;;;24.91;48.50
58658;BME280;44428;45.630;13.786;2022-07-29T05:10:45;101143.16;;;24.99;48.18
58658;BME280;44428;45.630;13.786;2022-07-29T05:13:11;101149.88;;;25.03;47.99
58658;BME280;44428;45.630;13.786;2022-07-29T05:15:37;101152.47;;;25.11;47.64
58658;BME280;44428;45.630;13.786;2022-07-29T05:18:03;101152.09;;;25.15;47.45
58658;BME280;44428;45.630;13.786;2022-07-29T05:20:30;101160.84;;;25.17;47.62
58658;BME280;44428;45.630;13.786;2022-07-29T05:22:57;101159.19;;;25.16;47.94
58658;BME280;44428;45.630;13.786;2022-07-29T05:25:27;101161.06;;;25.15;47.89
58658;BME280;44428;45.630;13.786;2022-07-29T05:27:54;101164.19;;;25.19;48.35
58658;BME280;44428;45.630;13.786;2022-07-29T05:30:20;101158.47;;;25.28;47.60
58658;BME280;44428;45.630;13.786;2022-07-29T05:32:46;101155.69;;;25.43;47.54
58658;BME280;44428;45.630;13.786;2022-07-29T05:35:13;101157.31;;;25.66;46.78
58658;BME280;44428;45.630;13.786;2022-07-29T05:37:39;101156.53;;;25.93;45.77
58658;BME280;44428;45.630;13.786;2022-07-29T05:40:06;101157.97;;;27.47;43.07
58658;BME280;44428;45.630;13.786;2022-07-29T05:42:32;101156.22;;;28.25;41.14
58658;BME280;44428;45.630;13.786;2022-07-29T05:44:58;101162.56;;;29.09;39.20
58658;BME280;44428;45.630;13.786;2022-07-29T05:47:24;101165.91;;;29.93;37.60
58658;BME280;44428;45.630;13.786;2022-07-29T05:49:50;101158.97;;;30.52;35.85
58658;BME280;44428;45.630;13.786;2022-07-29T05:52:16;101156.81;;;30.73;35.63
58658;BME280;44428;45.630;13.786;2022-07-29T05:54:42;101165.59;;;30.75;35.23
58658;BME280;44428;45.630;13.786;2022-07-29T05:57:15;101168.00;;;31.43;34.50
58658;BME280;44428;45.630;13.786;2022-07-29T05:59:40;101164.69;;;31.88;33.28
58658;BME280;44428;45.630;13.786;2022-07-29T06:02:07;101169.47;;;32.05;33.81
58658;BME280;44428;45.630;13.786;2022-07-29T06:04:33;101168.97;;;31.61;34.48
58658;BME280;44428;45.630;13.786;2022-07-29T06:06:58;101168.66;;;30.67;35.81
58658;BME280;44428;45.630;13.786;2022-07-29T06:09:24;101183.84;;;30.44;36.54
58658;BME280;44428;45.630;13.786;2022-07-29T06:11:51;101190.41;;;31.03;35.78
58658;BME280;44428;45.630;13.786;2022-07-29T06:14:17;101190.25;;;32.17;33.04
58658;BME280;44428;45.630;13.786;2022-07-29T06:16:43;101189.19;;;32.71;32.73
58658;BME280;44428;45.630;13.786;2022-07-29T06:19:09;101179.56;;;33.25;31.86
58658;BME280;44428;45.630;13.786;2022-07-29T06:21:35;101192.88;;;33.84;31.08
58658;BME280;44428;45.630;13.786;2022-07-29T06:24:01;101186.66;;;34.28;29.88
58658;BME280;44428;45.630;13.786;2022-07-29T06:26:27;101196.31;;;34.52;30.14
58658;BME280;44428;45.630;13.786;2022-07-29T06:28:53;101196.34;;;35.01;29.43
58658;BME280;44428;45.630;13.786;2022-07-29T06:31:18;101197.03;;;35.46;29.05
58658;BME280;44428;45.630;13.786;2022-07-29T06:33:44;101205.84;;;35.75;28.26
58658;BME280;44428;45.630;13.786;2022-07-29T06:36:10;101194.03;;;36.22;28.22
58658;BME280;44428;45.630;13.786;2022-07-29T06:38:36;101206.28;;;36.46;27.49
58658;BME280;44428;45.630;13.786;2022-07-29T06:41:03;101205.88;;;36.80;27.14
58658;BME280;44428;45.630;13.786;2022-07-29T06:43:41;101197.09;;;36.99;26.84
58658;BME280;44428;45.630;13.786;2022-07-29T06:46:15;101216.44;;;37.19;26.51
58658;BME280;44428;45.630;13.786;2022-07-29T06:48:43;101207.63;;;37.38;26.29
58658;BME280;44428;45.630;13.786;2022-07-29T06:51:10;101217.03;;;37.62;26.12
58658;BME280;44428;45.630;13.786;2022-07-29T06:53:37;101206.53;;;37.69;25.90
58658;BME280;44428;45.630;13.786;2022-07-29T06:56:04;101210.94;;;37.86;24.97
58658;BME280;44428;45.630;13.786;2022-07-29T06:58:30;101217.59;;;37.59;25.59
58658;BME280;44428;45.630;13.786;2022-07-29T07:00:57;101217.00;;;37.72;25.89
58658;BME280;44428;45.630;13.786;2022-07-29T07:03:24;101213.19;;;37.53;25.58
58658;BME280;44428;45.630;13.786;2022-07-29T07:05:52;101213.72;;;37.60;25.37
58658;BME280;44428;45.630;13.786;2022-07-29T07:08:18;101201.81;;;37.90;25.32
58658;BME280;44428;45.630;13.786;2022-07-29T07:10:45;101203.78;;;37.95;25.79
58658;BME280;44428;45.630;13.786;2022-07-29T07:13:11;101207.06;;;37.97;26.33
58658;BME280;44428;45.630;13.786;2022-07-29T07:15:37;101209.81;;;38.02;25.67
58658;BME280;44428;45.630;13.786;2022-07-29T07:18:04;101207.63;;;38.04;26.04
58658;BME280;44428;45.630;13.786;2022-07-29T07:20:32;101211.75;;;37.96;27.34
58658;BME280;44428;45.630;13.786;2022-07-29T07:22:58;101206.50;;;37.90;27.52
58658;BME280;44428;45.630;13.786;2022-07-29T07:25:23;101211.44;;;38.13;27.04
58658;BME280;44428;45.630;13.786;2022-07-29T07:27:49;101213.66;;;38.11;26.33
58658;BME280;44428;45.630;13.786;2022-07-29T07:30:15;101218.69;;;37.68;26.85
58658;BME280;44428;45.630;13.786;2022-07-29T07:32:41;101212.56;;;37.87;26.28
58658;BME280;44428;45.630;13.786;2022-07-29T07:35:08;101217.50;;;38.15;26.34
58658;BME280;44428;45.630;13.786;2022-07-29T07:37:35;101216.31;;;38.47;26.31
58658;BME280;44428;45.630;13.786;2022-07-29T07:40:00;101216.75;;;38.75;26.03
58658;BME280;44428;45.630;13.786;2022-07-29T07:42:26;101207.53;;;38.30;26.93
58658;BME280;44428;45.630;13.786;2022-07-29T07:44:52;101204.31;;;37.92;26.13
58658;BME280;44428;45.630;13.786;2022-07-29T07:47:18;101203.19;;;37.88;27.23
58658;BME280;44428;45.630;13.786;2022-07-29T07:49:46;101208.13;;;38.11;26.26
58658;BME280;44428;45.630;13.786;2022-07-29T07:52:13;101210.78;;;38.37;26.41
58658;BME280;44428;45.630;13.786;2022-07-29T07:54:39;101205.75;;;38.64;25.93
58658;BME280;44428;45.630;13.786;2022-07-29T07:57:04;101206.50;;;38.75;25.93
58658;BME280;44428;45.630;13.786;2022-07-29T07:59:30;101212.84;;;38.06;26.31
58658;BME280;44428;45.630;13.786;2022-07-29T08:01:56;101204.31;;;37.76;26.61
58658;BME280;44428;45.630;13.786;2022-07-29T08:04:22;101212.56;;;37.87;27.03
58658;BME280;44428;45.630;13.786;2022-07-29T08:06:48;101211.50;;;37.57;27.36
58658;BME280;44428;45.630;13.786;2022-07-29T08:09:16;101209.31;;;37.54;27.43
58658;BME280;44428;45.630;13.786;2022-07-29T08:11:41;101207.09;;;37.61;27.00
58658;BME280;44428;45.630;13.786;2022-07-29T08:14:07;101203.50;;;37.61;27.13
58658;BME280;44428;45.630;13.786;2022-07-29T08:16:33;101205.41;;;37.75;26.96
58658;BME280;44428;45.630;13.786;2022-07-29T08:18:59;101206.53;;;37.69;27.81
58658;BME280;44428;45.630;13.786;2022-07-29T08:21:24;101197.69;;;37.98;26.80
58658;BME280;44428;45.630;13.786;2022-07-29T08:23:50;101199.88;;;38.06;27.00
58658;BME280;44428;45.630;13.786;2022-07-29T08:26:40;101203.59;;;38.46;25.98
58658;BME280;44428;45.630;13.786;2022-07-29T08:29:06;101203.97;;;38.84;25.61
58658;BME280;44428;45.630;13.786;2022-07-29T08:31:32;101207.31;;;38.00;26.03
58658;BME280;44428;45.630;13.786;2022-07-29T08:33:57;101209.84;;;37.61;26.73
58658;BME280;44428;45.630;13.786;2022-07-29T08:36:25;101211.47;;;37.42;27.08
58658;BME280;44428;45.630;13.786;2022-07-29T08:38:52;101213.13;;;37.32;27.32
58658;BME280;44428;45.630;13.786;2022-07-29T08:41:19;101213.97;;;37.43;27.29
58658;BME280;44428;45.630;13.786;2022-07-29T08:43:45;101220.84;;;37.20;28.34
58658;BME280;44428;45.630;13.786;2022-07-29T08:46:11;101222.78;;;37.45;27.36
58658;BME280;44428;45.630;13.786;2022-07-29T08:48:38;101218.66;;;37.38;27.77
58658;BME280;44428;45.630;13.786;2022-07-29T08:51:04;101229.63;;;37.12;27.88
58658;BME280;44428;45.630;13.786;2022-07-29T08:53:32;101222.53;;;37.52;27.40
58658;BME280;44428;45.630;13.786;2022-07-29T08:55:58;101216.97;;;37.88;26.82
58658;BME280;44428;45.630;13.786;2022-07-29T08:58:26;101214.81;;;37.54;26.95
58658;BME280;44428;45.630;13.786;2022-07-29T09:00:54;101214.78;;;37.13;27.71
58658;BME280;44428;45.630;13.786;2022-07-29T09:03:24;101207.59;;;37.12;28.21
58658;BME280;44428;45.630;13.786;2022-07-29T09:05:51;101210.38;;;37.27;28.50
58658;BME280;44428;45.630;13.786;2022-07-29T09:08:17;101218.66;;;37.73;28.24
58658;BME280;44428;45.630;13.786;2022-07-29T09:10:44;101213.69;;;37.55;28.07
58658;BME280;44428;45.630;13.786;2022-07-29T09:13:10;101224.16;;;37.17;29.62
58658;BME280;44428;45.630;13.786;2022-07-29T09:15:35;101212.63;;;37.51;29.75
58658;BME280;44428;45.630;13.786;2022-07-29T09:18:01;101210.28;;;36.86;31.95
58658;BME280;44428;45.630;13.786;2022-07-29T09:20:27;101214.69;;;36.98;31.93
58658;BME280;44428;45.630;13.786;2022-07-29T09:23:14;101210.78;;;36.73;32.39
58658;BME280;44428;45.630;13.786;2022-07-29T09:25:40;101217.38;;;36.67;31.92
58658;BME280;44428;45.630;13.786;2022-07-29T09:28:12;101202.16;;;36.01;33.11
58658;BME280;44428;45.630;13.786;2022-07-29T09:30:58;101207.03;;;35.89;33.55
58658;BME280;44428;45.630;13.786;2022-07-29T09:33:31;101205.00;;;36.12;33.00
58658;BME280;44428;45.630;13.786;2022-07-29T09:36:07;101206.88;;;36.54;31.56
58658;BME280;44428;45.630;13.786;2022-07-29T09:38:34;101207.50;;;36.71;31.04
58658;BME280;44428;45.630;13.786;2022-07-29T09:41:02;101209.81;;;37.10;30.13
58658;BME280;44428;45.630;13.786;2022-07-29T09:43:28;101197.13;;;37.40;29.95
58658;BME280;44428;45.630;13.786;2022-07-29T09:45:54;101198.81;;;37.51;29.36
58658;BME280;44428;45.630;13.786;2022-07-29T09:48:22;101203.22;;;37.52;29.88
58658;BME280;44428;45.630;13.786;2022-07-29T09:50:48;101187.75;;;37.76;28.82
58658;BME280;44428;45.630;13.786;2022-07-29T09:53:38;101202.69;;;37.50;28.95
58658;BME280;44428;45.630;13.786;2022-07-29T09:56:05;101205.41;;;37.24;29.02
58658;BME280;44428;45.630;13.786;2022-07-29T09:58:31;101213.94;;;37.12;28.89
58658;BME280;44428;45.630;13.786;2022-07-29T10:01:00;101203.09;;;36.85;29.67
58658;BME280;44428;45.630;13.786;2022-07-29T10:03:29;101205.34;;;36.94;29.20
58658;BME280;44428;45.630;13.786;2022-07-29T10:06:11;101202.97;;;36.50;29.28
58658;BME280;44428;45.630;13.786;2022-07-29T10:08:41;101197.03;;;36.78;29.67
58658;BME280;44428;45.630;13.786;2022-07-29T10:11:13;101198.13;;;36.72;30.36
58658;BME280;44428;45.630;13.786;2022-07-29T10:13:41;101200.81;;;36.57;30.62
58658;BME280;44428;45.630;13.786;2022-07-29T10:16:07;101208.06;;;36.88;30.88
58658;BME280;44428;45.630;13.786;2022-07-29T10:18:33;101206.78;;;37.01;30.17
58658;BME280;44428;45.630;13.786;2022-07-29T10:21:00;101202.59;;;36.99;30.81
58658;BME280;44428;45.630;13.786;2022-07-29T10:23:28;101208.06;;;36.88;30.52
58658;BME280;44428;45.630;13.786;2022-07-29T10:25:55;101204.78;;;36.97;31.66
58658;BME280;44428;45.630;13.786;2022-07-29T10:28:21;101199.63;;;37.10;31.12
58658;BME280;44428;45.630;13.786;2022-07-29T10:30:49;101196.50;;;36.91;30.84
58658;BME280;44428;45.630;13.786;2022-07-29T10:39:05;101180.59;;;38.01;30.80
58658;BME280;44428;45.630;13.786;2022-07-29T10:42:06;101185.00;;;37.87;29.89
58658;BME280;44428;45.630;13.786;2022-07-29T10:44:34;101175.09;;;37.70;29.34
58658;BME280;44428;45.630;13.786;2022-07-29T10:47:00;101174.47;;;38.14;30.07
58658;BME280;44428;45.630;13.786;2022-07-29T10:49:26;101173.97;;;37.30;29.24
58658;BME280;44428;45.630;13.786;2022-07-29T10:54:35;101166.81;;;37.24;30.88
58658;BME280;44428;45.630;13.786;2022-07-29T10:57:21;101173.97;;;37.15;30.17
58658;BME280;44428;45.630;13.786;2022-07-29T11:00:26;101165.19;;;37.13;30.79
58658;BME280;44428;45.630;13.786;2022-07-29T11:05:13;101172.78;;;36.70;31.95
58658;BME280;44428;45.630;13.786;2022-07-29T11:10:38;101165.06;;;36.62;31.28
58658;BME280;44428;45.630;13.786;2022-07-29T11:13:04;101160.47;;;36.25;31.53
58658;BME280;44428;45.630;13.786;2022-07-29T11:15:56;101162.84;;;36.54;31.38
58658;BME280;44428;45.630;13.786;2022-07-29T11:18:23;101164.72;;;36.00;32.18
58658;BME280;44428;45.630;13.786;2022-07-29T11:20:49;101171.19;;;35.74;32.96
58658;BME280;44428;45.630;13.786;2022-07-29T11:28:51;101155.81;;;35.78;32.40
58658;BME280;44428;45.630;13.786;2022-07-29T11:31:44;101160.19;;;35.74;31.97
58658;BME280;44428;45.630;13.786;2022-07-29T11:39:36;101156.19;;;35.92;32.70
58658;BME280;44428;45.630;13.786;2022-07-29T11:44:58;101157.22;;;36.33;32.26
58658;BME280;44428;45.630;13.786;2022-07-29T11:47:27;101147.91;;;36.44;32.19
58658;BME280;44428;45.630;13.786;2022-07-29T11:49:54;101153.94;;;36.31;31.54
58658;BME280;44428;45.630;13.786;2022-07-29T11:52:21;101146.69;;;36.15;32.55
58658;BME280;44428;45.630;13.786;2022-07-29T11:54:48;101156.75;;;35.99;32.56
58658;BME280;44428;45.630;13.786;2022-07-29T11:57:19;101148.63;;;35.72;33.06
58658;BME280;44428;45.630;13.786;2022-07-29T11:59:46;101146.50;;;35.84;33.74
58658;BME280;44428;45.630;13.786;2022-07-29T12:02:14;101156.53;;;36.06;33.59
58658;BME280;44428;45.630;13.786;2022-07-29T12:04:55;101150.09;;;36.42;32.90
58658;BME280;44428;45.630;13.786;2022-07-29T12:07:31;101143.22;;;36.45;31.88
58658;BME280;44428;45.630;13.786;2022-07-29T12:09:57;101153.41;;;36.44;31.31
58658;BME280;44428;45.630;13.786;2022-07-29T12:12:23;101152.59;;;36.44;30.50
58658;BME280;44428;45.630;13.786;2022-07-29T12:14:49;101148.94;;;36.23;31.53
58658;BME280;44428;45.630;13.786;2022-07-29T12:17:30;101155.47;;;36.12;31.94
58658;BME280;44428;45.630;13.786;2022-07-29T12:19:57;101153.53;;;36.07;32.19
58658;BME280;44428;45.630;13.786;2022-07-29T12:22:35;101149.81;;;35.91;32.73
58658;BME280;44428;45.630;13.786;2022-07-29T12:25:08;101147.41;;;35.58;32.68
58658;BME280;44428;45.630;13.786;2022-07-29T12:27:35;101143.16;;;35.77;34.07
58658;BME280;44428;45.630;13.786;2022-07-29T12:30:10;101147.13;;;35.96;33.10
58658;BME280;44428;45.630;13.786;2022-07-29T12:32:42;101151.69;;;36.23;32.43
58658;BME280;44428;45.630;13.786;2022-07-29T12:35:11;101148.94;;;35.43;35.29
58658;BME280;44428;45.630;13.786;2022-07-29T12:37:40;101141.38;;;35.55;35.44
58658;BME280;44428;45.630;13.786;2022-07-29T12:40:08;101143.00;;;35.24;35.08
58658;BME280;44428;45.630;13.786;2022-07-29T12:42:34;101141.44;;;35.01;35.42
58658;BME280;44428;45.630;13.786;2022-07-29T12:45:01;101135.94;;;35.33;34.90
58658;BME280;44428;45.630;13.786;2022-07-29T12:47:28;101149.56;;;35.50;35.17
58658;BME280;44428;45.630;13.786;2022-07-29T12:50:14;101142.13;;;35.19;35.26
58658;BME280;44428;45.630;13.786;2022-07-29T12:52:44;101138.94;;;35.00;36.11
58658;BME280;44428;45.630;13.786;2022-07-29T12:55:10;101140.34;;;34.53;36.25
58658;BME280;44428;45.630;13.786;2022-07-29T12:57:48;101138.47;;;34.32;36.57
58658;BME280;44428;45.630;13.786;2022-07-29T13:00:14;101145.00;;;33.92;38.01
58658;BME280;44428;45.630;13.786;2022-07-29T13:02:41;101144.69;;;34.05;38.42
58658;BME280;44428;45.630;13.786;2022-07-29T13:05:08;101137.19;;;34.17;36.62
58658;BME280;44428;45.630;13.786;2022-07-29T13:07:35;101137.28;;;34.28;34.94
58658;BME280;44428;45.630;13.786;2022-07-29T13:10:15;101136.47;;;34.27;34.89
58658;BME280;44428;45.630;13.786;2022-07-29T13:13:10;101132.97;;;34.32;35.65
58658;BME280;44428;45.630;13.786;2022-07-29T13:15:46;101130.25;;;34.37;37.67
58658;BME280;44428;45.630;13.786;2022-07-29T13:18:33;101132.72;;;33.94;39.40
58658;BME280;44428;45.630;13.786;2022-07-29T13:21:15;101141.91;;;33.66;39.93
58658;BME280;44428;45.630;13.786;2022-07-29T13:23:41;101122.06;;;33.98;39.12
58658;BME280;44428;45.630;13.786;2022-07-29T13:26:10;101131.09;;;33.77;38.53
58658;BME280;44428;45.630;13.786;2022-07-29T13:28:41;101126.16;;;33.57;38.76
58658;BME280;44428;45.630;13.786;2022-07-29T13:31:07;101130.13;;;33.66;38.37
58658;BME280;44428;45.630;13.786;2022-07-29T13:33:33;101120.91;;;33.94;38.35
58658;BME280;44428;45.630;13.786;2022-07-29T13:35:58;101117.59;;;33.92;38.74
58658;BME280;44428;45.630;13.786;2022-07-29T13:38:24;101117.28;;;34.05;39.49
58658;BME280;44428;45.630;13.786;2022-07-29T13:40:50;101115.31;;;33.84;38.43